Dylan Aaronson

Recruteur en chef - New York City
20 Nov 2027
Samedi
Processus

Personnalité

Adaptabilité (11) Ambition (17) Controverse (15) Loyauté (10) Pression (3) Professionnalisme (7) Sportivité (14) Tempérament (12)

Profil

Style d'entraînement Démocratique
Diplôme Continental Pro
Détermination 12
Gestion des joueurs 5
Motivation 8
Discipline 6
Satisfaction professionnelle
91%
Fatigue
0%
Rôle Recruteur en chef
Salaire 44.8K p/s
Contrat 14.03.2029

Performance

Comportement Bon
Efficacité de l'entraînement
34%
Développement des joueurs
35%
Prévention des blessures
55%
Mise en place tactique
30%

Événements récents

A participé à une réunion de recrutement maintenant
A recommandé une cible de transfert maintenant
A évalué un joueur 7j
A évalué un joueur 7j
A évalué un joueur 7j
A évalué un joueur 7j
A évalué un joueur 7j
A évalué un joueur 7j

Suivi en cours

250
Joueur Club Statut Capacité Confiance Observé Dernière observation Dernier vote
Timo Werner San Jose Earthquakes Actif 136 / 126 40% 5 16.11.2027 -
Bruno Leyes Godoy Cruz Actif 137 / 125 40% 2 16.11.2027 -
Sebastián Ramírez America de Cali Actif 123 / 116 40% 2 16.11.2027 -
Sam Curtis Swindon Town Actif 109 / 117 40% 1 16.11.2027 -
Agustín Hausch Caracas Actif 118 / 129 40% 5 14.11.2027 -
Manuel Duarte Barracas Central Actif 131 / 113 40% 1 14.11.2027 -
Luca Langoni New England Revolution Actif 131 / 129 40% 4 13.11.2027 -
Matko Miljevic Racing Club Actif 124 / 129 40% 4 13.11.2027 -
Iñaki Larthirigoyen San Telmo Actif 108 / 116 40% 2 12.11.2027 -
Facundo Torres AIK Actif 130 / 137 40% 2 12.11.2027 -
Antonio Galeano Remo Stars Actif 131 / 129 40% 4 11.11.2027 -
Anders Dreyer San Diego Football Club Actif 132 / 128 40% 1 11.11.2027 -
Gastón Togni Defensa y Justicia Actif 141 / 134 40% 3 10.11.2027 -
Matías Machado Racing Actif 122 / 106 40% 1 10.11.2027 -
Aidan Morris Middlesbrough Actif 133 / 138 40% 7 09.11.2027 -
Chris Rigg Sunderland Actif 137 / 146 40% 1 09.11.2027 -
Josh Nichols Tranmere Rovers Actif 125 / 122 40% 1 09.11.2027 -
Marcelino Moreno Lanús Actif 127 / 135 40% 1 09.11.2027 -
Tomás Chancalay Minnesota United FC Actif 135 / 126 40% 3 08.11.2027 -
Christos Mouzakitis Hull City Actif 129 / 142 40% 2 07.11.2027 -
Giovanni Leoni Mansfield Town Actif 146 / 145 40% 1 06.11.2027 -
Harrison Armstrong Everton Actif 130 / 142 40% 1 06.11.2027 -
Tyler Adams Bournemouth Actif 150 / 160 40% 8 02.11.2027 -
Ibrahim Aliyu Houston Dynamo Actif 133 / 120 40% 1 02.11.2027 -
Tadeo Allende Inter Miami CF Actif 128 / 121 40% 3 01.11.2027 -
Alexis Cuello San Lorenzo Actif 127 / 124 40% 1 01.11.2027 -
Quinn Sullivan Philadelphia Union Actif 136 / 120 40% 3 31.10.2027 -
Telasco Segovia Inter Miami CF Actif 132 / 129 40% 1 31.10.2027 -
Aarón Molinas Defensa y Justicia Actif 125 / 136 40% 2 30.10.2027 -
Hosea Michael Remo Stars Actif 92 / 88 40% 3 30.10.2027 -
Honest Ahanor Atalanta Actif 141 / 139 40% 1 30.10.2027 -
Sergio Reguilón Inter Miami CF Actif 138 / 132 40% 2 28.10.2027 -
Morgan Guilavogui Real Salt Lake Actif 127 / 132 40% 4 27.10.2027 -
Diego Luna Real Salt Lake Actif 132 / 132 40% 1 27.10.2027 -
Vicente Poggi Godoy Cruz Actif 136 / 116 40% 3 26.10.2027 -
Juan Camilo Córdoba Deportivo Pereira Actif 86 / 102 40% 2 26.10.2027 -
Lucas Ríos Atlanta Actif 103 / 110 40% 1 24.10.2027 -
Gonzalo Plata Rosenborg Actif 151 / 133 40% 1 24.10.2027 -
Santiago Vera Almirante Brown Actif 130 / 107 40% 2 23.10.2027 -
Lewis Miley Birmingham Actif 157 / 153 40% 2 23.10.2027 -
Trey Nyoni Doncaster Rovers Actif 141 / 143 40% 1 23.10.2027 -
Raúl Lozano Quilmes Actif 114 / 110 40% 3 19.10.2027 -
Luis Otávio Toronto FC Actif 111 / 117 40% 1 19.10.2027 -
Ollie Scarles Chelsea Actif 132 / 140 40% 1 19.10.2027 -
Ryan Gauld Vancouver Whitecaps Actif 138 / 136 40% 5 17.10.2027 -
Jordan Morris Seattle Sounders Actif 123 / 120 40% 5 14.10.2027 -
Agustín Medina Lanús Actif 106 / 131 40% 1 14.10.2027 -
Juan Manuel Villalba Boca Juniors Actif 127 / 125 40% 1 14.10.2027 -
Ronan Kpakio Brentford Actif 122 / 126 40% 4 13.10.2027 -
Elias Achouri San Diego Football Club Actif 147 / 128 40% 4 09.10.2027 -
Nicolás Fernández Belgrano Actif 134 / 117 40% 4 08.10.2027 -
Ayden Heaven Sheffield Wednesday Actif 144 / 154 40% 1 08.10.2027 -
Martín Ojeda Orlando City Actif 128 / 128 40% 5 06.10.2027 -
Luka Vušković Tottenham Actif 137 / 153 40% 2 06.10.2027 -
Esquerdinha Oldham Athletic Actif 112 / 124 40% 1 06.10.2027 -
Alejo Cruz Juventud Actif 119 / 112 40% 1 06.10.2027 -
Franco Nicola Liverpool Montevideo Actif 111 / 128 40% 1 05.10.2027 -
Adrián Marín Orlando City Actif 125 / 121 40% 2 02.10.2027 -
Bryan Ramírez FC Cincinnati Actif 137 / 125 40% 1 27.09.2027 -
Cristian Espinoza Nashville SC Actif 126 / 125 40% 1 27.09.2027 -
Rick Talleres Actif 114 / 122 40% 1 25.09.2027 -
Aiden Hezarkhani Real Salt Lake Actif 90 / 95 40% 1 24.09.2027 -
Sheriff Amuda Shooting Stars Actif 85 / 89 40% 1 24.09.2027 -
Liel Abada Charlotte Football Club Actif 130 / 136 40% 2 22.09.2027 -
Franco Cristaldo Talleres Actif 125 / 126 40% 2 21.09.2027 -
Gastón Moreyra Almirante Brown Actif 101 / 118 40% 1 18.09.2027 -
Azizbek To'lqinbekov Bunyodkor Actif 95 / 94 40% 1 16.09.2027 -
Emmanuel Akpan Bendel Insurance Actif 84 / 92 40% 1 15.09.2027 -
Gideon Manaseh Ikorodu City Actif 96 / 101 40% 1 15.09.2027 -
Onyeuche Ujunwa Ikorodu City Actif 89 / 88 40% 1 14.09.2027 -
Darius Lane Brighton Actif 96 / 101 40% 1 14.09.2027 -
Josh King Derby County Actif 134 / 148 40% 1 12.09.2027 -
Matai Akinmboni Bournemouth Actif 105 / 119 40% 1 12.09.2027 -
Kaick FC Dallas Actif 97 / 107 40% 1 08.09.2027 -
Gift Isioma Warri Wolves Actif 76 / 83 40% 1 08.09.2027 -
Facundo Altamira Godoy Cruz Actif 133 / 127 40% 1 08.09.2027 -
Jonathan De Irastorza Levante Actif 122 / 130 40% 3 08.07.2027 -
Simone Kosijer Triestina Actif 93 / 100 40% 1 08.07.2027 -
Callum O'Hare Sheffield United Actif 130 / 135 40% 1 07.07.2027 -
Luca Bombino Stoke City Actif 111 / 109 40% 2 06.07.2027 -
Aaron Collins Milton Keynes Dons Actif 126 / 117 40% 3 06.07.2027 -
Koki Saito Queens Park Rangers Actif 122 / 127 40% 3 04.07.2027 -
Dávid Strelec Middlesbrough Actif 147 / 135 40% 6 03.07.2027 -
Demarai Gray Birmingham Actif 131 / 132 40% 3 03.07.2027 -
Ronald Swansea City Actif 132 / 132 40% 6 02.07.2027 -
Enzo Le Fée Sunderland Actif 134 / 140 40% 1 02.07.2027 -
Edwin Asamoah Berekum Chelsea Actif 82 / 84 40% 3 01.07.2027 -
Isaiah Jones Luton Town Actif 120 / 123 40% 2 01.07.2027 -
Joel Ezra Enyimba Actif 100 / 98 40% 1 01.07.2027 -
Loum Tchaouna Coventry City Actif 136 / 138 40% 4 28.06.2027 -
Jeon Jin-Woo Sheffield Wednesday Actif 130 / 135 40% 4 27.06.2027 -
Karlan Grant West Bromwich Albion Actif 126 / 125 40% 2 26.06.2027 -
Tom Fellows Southampton Actif 139 / 130 40% 4 25.06.2027 -
Mathias Jørgensen Blackburn Rovers Actif 124 / 120 40% 1 25.06.2027 -
Ali Ahmed Norwich City Actif 123 / 121 40% 3 24.06.2027 -
Fraser Murray Wigan Athletic Actif 112 / 112 40% 2 24.06.2027 -
Florentino Luís Ipswich Town Actif 149 / 147 40% 2 23.06.2027 -
Harry Clarke Preston Actif 125 / 133 40% 1 23.06.2027 -
Dylan Lawlor Cardiff City Actif 125 / 127 40% 1 23.06.2027 -
Jaydee Canvot Liverpool Actif 139 / 138 40% 1 23.06.2027 -
Welington Southampton Actif 131 / 129 40% 3 21.06.2027 -
Kevin Schade Brentford Actif 158 / 146 40% 2 21.06.2027 -
Riley McGree Middlesbrough Actif 130 / 130 40% 1 20.06.2027 -
Brenden Aaronson Leeds United Actif 138 / 139 40% 2 19.06.2027 -
Lamine Cissé Peterborough United Actif 121 / 120 40% 4 17.06.2027 -
Carlos Vicente Udinese Actif 149 / 142 40% 4 16.06.2027 -
Chemsdine Talbi Sunderland Actif 149 / 148 40% 3 14.06.2027 -
Todd Cantwell Blackburn Rovers Actif 126 / 128 40% 2 11.06.2027 -
Godwin Oham Warri Wolves Actif 90 / 94 40% 2 11.06.2027 -
Daniel Kelly Derby County Actif 120 / 115 40% 1 11.06.2027 -
Rumarn Burrell Queens Park Rangers Actif 134 / 125 40% 7 09.06.2027 -
Tariq Lamptey Queens Park Rangers Actif 135 / 137 40% 1 08.06.2027 -
Ethan Galbraith Swansea City Actif 130 / 128 40% 1 06.06.2027 -
Jack Rudoni Coventry City Actif 137 / 136 40% 5 05.06.2027 -
Mikkel Damsgaard Brentford Actif 152 / 151 40% 2 05.06.2027 -
Dayann Methalie Everton Actif 129 / 134 40% 3 05.06.2027 -
Maeson King Blackpool Actif 111 / 115 40% 2 02.06.2027 -
Lucas Bergvall Tottenham Actif 153 / 151 40% 1 01.06.2027 -
Zeidane Inoussa Swansea City Actif 129 / 119 40% 2 31.05.2027 -
Jovon Makama Norwich City Actif 134 / 130 40% 2 28.05.2027 -
Jack McGlynn Stoke City Actif 131 / 130 40% 3 27.05.2027 -
Kevin Fulham Actif 144 / 148 40% 3 26.05.2027 -
Léo Scienza Southampton Actif 132 / 132 40% 1 22.05.2027 -
Emile Smith Rowe Fulham Actif 152 / 145 40% 2 21.05.2027 -
Victor Ehibe Gazelle Garoua Actif 94 / 98 40% 3 21.05.2027 -
Gladson Sulemana Liberty Professionals Actif 99 / 100 40% 2 21.05.2027 -
Marcus Edwards Burnley Actif 136 / 136 40% 2 17.05.2027 -
Surprise Manthosi Polokwane City Actif 80 / 105 40% 2 16.05.2027 -
Kasey McAteer Ipswich Town Actif 136 / 127 40% 2 16.05.2027 -
Lucas Jetten Cambuur Actif 107 / 124 40% 1 16.05.2027 -
Dango Ouattara Brentford Actif 143 / 149 40% 4 13.05.2027 -
Caleb Yirenkyi Coventry City Actif 134 / 134 40% 2 12.05.2027 -
Andre Brooks Sheffield United Actif 121 / 135 40% 1 12.05.2027 -
Pietro Reggiori Pro Patria Actif 97 / 96 40% 1 12.05.2027 -
T-Jay Parfitt Cardiff City Actif 89 / 93 40% 2 09.05.2027 -
Josh Murphy Portsmouth Actif 134 / 124 40% 1 05.05.2027 -
Joel McGregor Swindon Town Actif 98 / 95 40% 1 04.05.2027 -
Sascha Britschgi Catanzaro Actif 116 / 123 40% 1 30.04.2027 -
Mohammed Wakaso Hasaacas Actif 90 / 105 40% 1 26.04.2027 -
Abraham Paintsil Hasaacas Actif 85 / 94 40% 2 25.04.2027 -
Riquelme Thompson-Jones Shrewsbury Town Actif 100 / 115 40% 1 15.04.2027 -
George Hirst Stoke City Actif 141 / 132 40% 1 12.04.2027 -
Gonzalo Fulham Actif 153 / 147 40% 1 06.04.2027 -
Yousef Salech Cardiff City Actif 125 / 123 40% 3 31.03.2027 -
Jacob Wright Norwich City Actif 118 / 124 40% 1 31.03.2027 -
Gonçalo Oliveira Benfica Actif 103 / 113 40% 1 29.03.2027 -
Adam Randell Bristol City Actif 133 / 128 40% 1 05.03.2027 -
Tyrell Malacia Derby County Actif 132 / 134 40% 1 04.03.2027 -
Bobby Thomas Coventry City Actif 125 / 130 40% 1 04.03.2027 -
Tim Iroegbunam Hull City Actif 139 / 140 40% 2 03.03.2027 -
André Wolverhampton Actif 141 / 146 40% 1 03.03.2027 -
Thiago Brentford Actif 154 / 148 40% 1 19.02.2027 -
Sam Surridge Leeds United Actif 131 / 135 67% 2 16.02.2027 Approuver
David Brooks Bournemouth Actif 142 / 141 40% 1 11.02.2027 -
Max Johnston Derby County Actif 119 / 132 40% 1 11.02.2027 -
Relebohile Mofokeng Orlando Pirates Actif 122 / 128 40% 5 09.02.2027 -
Finn Azaz Southampton Actif 135 / 123 40% 3 08.02.2027 -
Romaine Mundle Sunderland Actif 130 / 129 40% 1 07.02.2027 -
Eddie Nketiah Crystal Palace Actif 142 / 142 40% 3 06.02.2027 -
Adam Wharton Crystal Palace Actif 143 / 158 40% 2 04.02.2027 -
Alex Scott Bournemouth Actif 142 / 156 40% 1 04.02.2027 -
Jean-Philippe Mateta Crystal Palace Actif 149 / 144 40% 1 02.02.2027 -
Nordi Mukiele Sunderland Actif 152 / 146 40% 2 31.01.2027 -
Jay Stansfield Birmingham Actif 123 / 127 40% 1 31.01.2027 -
Jed Wallace West Bromwich Albion Actif 114 / 118 40% 1 29.01.2027 -
Ryan Sessegnon Fulham Actif 155 / 144 40% 1 27.01.2027 -
Adrien Truffert Bournemouth Actif 148 / 146 40% 2 26.01.2027 -
Taiwo Awoniyi Coventry City Actif 143 / 137 40% 1 25.01.2027 -
Noah Okafor Leeds United Actif 132 / 138 40% 3 24.01.2027 -
Joe Gelhardt Hull City Actif 129 / 133 40% 4 24.01.2027 -
Max Conway Bolton Wanderers Actif 118 / 115 40% 1 24.01.2027 -
Zian Flemming Ipswich Town Actif 136 / 131 40% 1 21.01.2027 -
Julio Enciso Ipswich Town Actif 140 / 145 40% 2 17.01.2027 -
Xaver Schlager Nottingham Forest Actif 143 / 155 40% 1 14.01.2027 -
Gianluca Scamacca Atalanta Actif 145 / 151 40% 2 12.01.2027 -
Cameron Archer Southampton Actif 133 / 127 40% 1 12.01.2027 -
Oliver Skipp Leicester City Actif 128 / 128 40% 1 12.01.2027 -
Milan van Ewijk Coventry City Actif 125 / 133 40% 1 12.01.2027 -
Calvin Bassey Fulham Actif 156 / 148 40% 1 10.01.2027 -
Kenny Tete Fulham Actif 143 / 145 40% 1 07.01.2027 -
Antonee Robinson Fulham Actif 150 / 150 40% 1 06.01.2027 -
Óscar Mingueza Crystal Palace Actif 158 / 149 40% 1 29.12.2026 -
Oussama Idrissi Ferencvaros Actif 143 / 143 40% 2 28.12.2026 -
Aune Heggebø West Bromwich Albion Actif 126 / 123 40% 1 25.12.2026 -
Oswin Appollis Orlando Pirates Actif 123 / 130 40% 1 22.12.2026 -
Nico O'Reilly Manchester City Actif 156 / 159 40% 1 21.12.2026 -
Konan N'Dri Lecce Actif 121 / 121 40% 1 20.12.2026 -
Pablo Solari Spartak Moscow Actif 119 / 126 40% 2 19.12.2026 -
Tijjani Reijnders Al-Qadisiyah Actif 144 / 160 40% 1 17.12.2026 -
Mehdi Torabi Tractor Actif 123 / 123 40% 1 15.12.2026 -
Wessam Abou Ali Columbus Crew Actif 130 / 129 40% 1 15.12.2026 -
Rafael Navarro St. Louis CITY SC Actif 135 / 131 40% 1 15.12.2026 -
Christian Krasnodar Actif 143 / 133 40% 3 12.12.2026 -
Nicolò Zaniolo Udinese Actif 137 / 139 40% 1 11.12.2026 -
Keinan Davis Udinese Actif 134 / 135 40% 1 11.12.2026 -
Leonardo Campana New England Revolution Actif 134 / 125 40% 2 09.12.2026 -
Marquinhos Spartak Moscow Actif 146 / 136 40% 2 09.12.2026 -
Veljko Birmančević Ferencvaros Actif 138 / 130 40% 1 09.12.2026 -
Kévin Denkey FC Cincinnati Actif 117 / 122 40% 2 06.12.2026 -
Prosper Obah Shakhtar Actif 126 / 118 40% 1 06.12.2026 -
Dejan Joveljić Seattle Sounders Actif 119 / 122 40% 2 05.12.2026 -
Iqraam Rayners Mamelodi Sundowns Actif 145 / 134 40% 2 02.12.2026 -
Achraf Bencharki Rapid Wien Actif 123 / 121 40% 1 01.12.2026 -
Khuliso Mudau Mamelodi Sundowns Actif 131 / 127 40% 1 30.11.2026 -
Ammar Ramadan DAC Dunajska Streda Actif 138 / 132 40% 1 28.11.2026 -
Cameron Brannagan Oxford United Actif 112 / 127 40% 1 23.11.2026 -
Bernard Tekpetey Ludogorets Actif 135 / 130 40% 1 23.11.2026 -
Reda Khadra Qarabag Actif 120 / 128 40% 1 19.11.2026 -
Brais Méndez Columbus Crew Actif 145 / 154 40% 4 17.11.2026 -
Gabriel Pirani San Diego Football Club Actif 123 / 129 40% 3 16.11.2026 -
Jesus Ferreira Seattle Sounders Actif 136 / 133 40% 4 15.11.2026 -
David Miculescu FCSB Actif 115 / 121 40% 1 15.11.2026 -
Youssef En-Nesyri Al-Ittihad Actif 145 / 141 40% 3 14.11.2026 -
Petar Stanić Ludogorets Actif 136 / 132 40% 1 14.11.2026 -
Joseph Paintsil LA Galaxy Actif 129 / 137 40% 1 14.11.2026 -
João Klauss LA Galaxy Actif 128 / 133 40% 1 12.11.2026 -
Kelvin Yeboah Minnesota United FC Actif 116 / 130 40% 2 10.11.2026 -
Amir Hossein Hosseinzadeh Tractor Actif 117 / 125 40% 2 06.11.2026 -
Maurits Kjærgaard Red Bull Salzburg Actif 140 / 132 40% 1 06.11.2026 -
Jordan Lotomba Bloemfontein Celtic Actif 125 / 118 40% 3 04.11.2026 -
Dean Zungu SuperSport United Actif 142 / 133 40% 1 30.10.2026 -
Ola Brynhildsen Bodo/Glimt Actif 127 / 128 40% 2 23.10.2026 -
Kwadwo Duah Ludogorets Actif 133 / 134 40% 1 22.10.2026 -
Bongokuhle Hlongwane Minnesota United FC Actif 134 / 122 40% 1 21.10.2026 -
Antony Portland Timbers Perdu 132 / 130 40% 3 19.10.2026 -
Lewis Morgan Toronto FC Actif 118 / 130 40% 2 17.10.2026 -
Djordje Mihailović Toronto FC Actif 141 / 124 40% 2 16.10.2026 -
Breel Embolo Atlanta United FC Actif 148 / 132 40% 2 14.10.2026 -
Duncan McGuire Houston Dynamo Actif 130 / 123 40% 2 13.10.2026 -
Malte Amundsen Columbus Crew Actif 119 / 121 40% 1 05.10.2026 -
Mateusz Bogusz Houston Dynamo Actif 119 / 128 40% 1 05.10.2026 -
Paxten Aaronson Colorado Rapids Actif 133 / 135 40% 2 03.10.2026 -
Richie Laryea Toronto FC Actif 128 / 126 40% 1 02.10.2026 -
Jonathan Bamba Chicago Fire Actif 143 / 128 40% 1 29.09.2026 -
Luca De La Torre Charlotte Football Club Actif 125 / 124 40% 1 28.09.2026 -
Lucas Souto Defensa y Justicia Actif 122 / 121 40% 1 28.09.2026 -
Herman Johansson FC Dallas Actif 130 / 130 40% 1 25.09.2026 -
Marcel Hartel St. Louis CITY SC Actif 133 / 133 40% 1 24.09.2026 -
Lucas Sanabria LA Galaxy Actif 125 / 125 40% 1 23.09.2026 -
Guilherme Houston Dynamo Actif 118 / 130 40% 1 21.09.2026 -
Joaquín Pereyra Minnesota United FC Actif 131 / 131 40% 1 20.09.2026 -
Yves Bissouma Tottenham Actif 134 / 142 40% 1 20.09.2026 -
Riqui Puig LA Galaxy Actif 134 / 135 40% 1 19.09.2026 -
Evander FC Cincinnati Actif 145 / 131 40% 1 16.09.2026 -
Teddy Teuma Sliema Wanderers Actif 138 / 130 40% 1 15.09.2026 -
David Da Costa Portland Timbers Actif 125 / 124 40% 2 14.09.2026 -
Juan Manuel Sanabria Real Salt Lake Actif 124 / 123 40% 1 13.09.2026 -
Niklas Dorsch Toronto FC Actif 127 / 136 40% 1 12.09.2026 -
Kai Wagner Philadelphia Union Actif 133 / 121 40% 1 10.09.2026 -
Josh Sargent Toronto FC Actif 123 / 122 40% 1 01.08.2026 -